CYIK

Details ICAO CYIK (YIK)
Name IVUJIVIK
Region Canada
Timezone America/Montreal (UTC-4.0)
Plans Departing 4
Arriving 7
Stats Elevation 126 ft / 38 m (AMSL)
Location 62.417204° -77.925278°
Runways 1
Magnetic Variation 21.564° W
Sunrise 2018-05-24 07:51:58 UTC / 2018-05-24 03:51:58 Local
Sunset 2018-05-25 02:28:01 UTC / 2018-05-24 22:28:01 Local
Advertisement - Login to hide

Runways

ID Width Length Bearing (true) Bearing (mag) Surface Threshold Offset Overrun Length
08 100 ft / 30 m 3,511 ft / 1,070 m 50.83° 72.39° Gravel 0 ft / 0 m 0 ft / 0 m
26 100 ft / 30 m 3,511 ft / 1,070 m 230.85° 252.41° Gravel 0 ft / 0 m 0 ft / 0 m

Map

Weather


0- 5 10 15 20 25 30 35+ Temperature / ° C

Clouds and Precipitation
Forecast for 2018-05-24 12:00 UTC. Updated an hour ago

Ground ~20,000 ft ~40,000 ft Winds

METAR

CYIK 241200Z 16010KT 15SM -SN FEW015 OVC024 M05/M08 A2992 RMK SF1SC8 SF TR SN CVR TR LOOSE SLP137

TAF

Not found

Frequencies

Unicom 122.10 MHz MF/CTAF
Tower 122.10 MHz ARPT RDO
Warning: Do not use this data for real-world aviation or navigation. No guarantee of current accuracy is given.